Lively, Virginia
Current Conditions -  °F | °C
As of 2:15 PM on Sunday 28 Dec 2014 (Local Time) from KW75 Reporting Station
Overcast Overcast  
Wind Chill: 61°   Ceiling: 8000
Heat Index: 61°   Visibility: 10mi
Dew Point: 49°   Wind: 7mph
Humidity: 65%   Direction: 260°W
Pressure: 29.94"   Gusts: NA
Location:  37.78°N, 76.51°W
Report Text: KW75 281915Z AUTO 26006KT 230V290 10SM BKN080 OVC100 16/10 A2994 RMK AO1 T01610095
Loading
Personal Weather Stations






























Interactive Weather Map New forecast layout! Learn more

10-Day Weather Forecast

Advertisements
Track Severe Weather on mobile